createdAt,value
2019-05-21T00:00:54.484Z,12.90
2019-05-21T00:03:42.420Z,12.90
2019-05-21T00:06:12.747Z,12.90
2019-05-21T00:09:00.540Z,12.90
2019-05-21T00:11:28.970Z,12.80
2019-05-21T00:13:57.876Z,12.80
2019-05-21T00:16:49.611Z,12.80
2019-05-21T00:19:20.392Z,12.80
2019-05-21T00:21:51.635Z,12.80
2019-05-21T00:24:22.518Z,12.80
2019-05-21T00:27:13.823Z,12.80
2019-05-21T00:30:20.069Z,12.80
2019-05-21T00:33:24.758Z,12.80
2019-05-21T00:36:30.252Z,12.80
2019-05-21T00:39:35.169Z,12.70
2019-05-21T00:42:05.428Z,12.70
2019-05-21T00:44:40.394Z,12.70
2019-05-21T00:47:10.429Z,12.70
2019-05-21T00:49:58.196Z,12.70
2019-05-21T00:52:26.622Z,12.70
2019-05-21T00:55:15.235Z,12.70
2019-05-21T00:57:44.206Z,12.70
2019-05-21T01:00:13.854Z,12.60
2019-05-21T01:03:01.826Z,12.60
2019-05-21T01:05:30.296Z,12.60
2019-05-21T01:07:58.747Z,12.60
2019-05-21T01:13:27.911Z,12.60
2019-05-21T01:15:57.223Z,12.60
2019-05-21T01:18:27.123Z,12.60
2019-05-21T01:21:16.324Z,12.50
2019-05-21T01:24:04.734Z,12.50
2019-05-21T01:26:54.199Z,12.60
2019-05-21T01:29:23.823Z,12.50
2019-05-21T01:31:52.938Z,12.50
2019-05-21T01:34:23.224Z,12.50
2019-05-21T01:36:52.608Z,12.50
2019-05-21T01:39:22.272Z,12.50
2019-05-21T01:41:52.370Z,12.50
2019-05-21T01:44:21.915Z,12.50
2019-05-21T01:46:51.664Z,12.50
2019-05-21T01:49:21.772Z,12.50
2019-05-21T01:51:51.306Z,12.50
2019-05-21T01:54:20.681Z,12.50
2019-05-21T01:56:58.334Z,12.40
2019-05-21T01:59:26.833Z,12.40
2019-05-21T02:01:55.383Z,12.40
2019-05-21T02:04:24.836Z,12.40
2019-05-21T02:07:12.620Z,12.40
2019-05-21T02:09:57.289Z,12.40
2019-05-21T02:12:26.659Z,12.40
2019-05-21T02:14:55.356Z,12.30
2019-05-21T02:17:25.695Z,12.30
2019-05-21T02:19:54.692Z,12.30
2019-05-21T02:22:23.673Z,12.30
2019-05-21T02:24:53.018Z,12.30
2019-05-21T02:27:41.524Z,12.30
2019-05-21T02:30:11.313Z,12.30
2019-05-21T02:32:40.316Z,12.30
2019-05-21T02:38:24.218Z,12.20
2019-05-21T02:40:52.773Z,12.20
2019-05-21T02:43:41.118Z,12.20
2019-05-21T02:46:28.965Z,12.20
2019-05-21T02:48:57.388Z,12.20
2019-05-21T02:51:26.577Z,12.20
2019-05-21T02:53:55.143Z,12.20
2019-05-21T02:56:25.419Z,12.20
2019-05-21T02:58:54.372Z,12.20
2019-05-21T03:01:24.712Z,12.20
2019-05-21T03:03:53.584Z,12.20
2019-05-21T03:06:23.280Z,12.20
2019-05-21T03:08:52.551Z,12.20
2019-05-21T03:11:21.545Z,12.20
2019-05-21T03:14:09.419Z,12.20
2019-05-21T03:16:38.297Z,12.20
2019-05-21T03:19:07.059Z,12.20
2019-05-21T03:21:35.616Z,12.20
2019-05-21T03:24:04.042Z,12.20
2019-05-21T03:26:32.624Z,12.20
2019-05-21T03:29:23.132Z,12.20
2019-05-21T03:31:54.026Z,12.20
2019-05-21T03:34:23.222Z,12.20
2019-05-21T03:36:52.985Z,12.20
2019-05-21T03:39:26.535Z,12.20
2019-05-21T03:41:55.190Z,12.20
2019-05-21T03:44:24.514Z,12.20
2019-05-21T03:46:53.443Z,12.10
2019-05-21T03:49:23.262Z,12.10
2019-05-21T03:51:53.253Z,12.10
2019-05-21T03:54:24.133Z,12.10
2019-05-21T03:56:54.370Z,12.10
2019-05-21T03:59:23.617Z,12.10
2019-05-21T04:01:54.463Z,12.10
2019-05-21T04:04:23.647Z,12.10
2019-05-21T04:06:53.457Z,12.10
2019-05-21T04:09:24.044Z,12.10
2019-05-21T04:12:11.861Z,12.10
2019-05-21T04:14:42.110Z,12.10
2019-05-21T04:17:21.856Z,12.10
2019-05-21T04:19:53.106Z,12.00
2019-05-21T04:22:23.125Z,12.00
2019-05-21T04:24:56.197Z,12.00
2019-05-21T04:27:25.979Z,11.90
2019-05-21T04:29:55.241Z,11.80
2019-05-21T04:32:24.571Z,11.80
2019-05-21T04:34:55.147Z,11.80
2019-05-21T04:37:24.384Z,11.80
2019-05-21T04:39:54.105Z,11.80
2019-05-21T04:42:23.341Z,11.80
2019-05-21T04:44:55.070Z,11.80
2019-05-21T04:47:44.681Z,11.70
2019-05-21T04:50:14.278Z,11.80
2019-05-21T04:52:43.096Z,11.80
2019-05-21T04:55:12.103Z,11.70
2019-05-21T04:57:40.988Z,11.80
2019-05-21T05:00:11.744Z,11.70
2019-05-21T05:02:41.458Z,11.70
2019-05-21T05:05:11.339Z,11.70
2019-05-21T05:07:52.142Z,11.70
2019-05-21T05:10:20.539Z,11.80
2019-05-21T05:12:53.809Z,11.80
2019-05-21T05:15:22.653Z,11.80
2019-05-21T05:17:53.420Z,11.80
2019-05-21T05:20:35.121Z,11.80
2019-05-21T05:23:03.548Z,11.80
2019-05-21T05:25:32.019Z,11.80
2019-05-21T05:28:00.506Z,11.80
2019-05-21T05:30:28.961Z,11.80
2019-05-21T05:32:57.395Z,11.80
2019-05-21T05:35:26.047Z,11.80
2019-05-21T05:38:18.154Z,11.80
2019-05-21T05:40:48.323Z,11.80
2019-05-21T05:43:21.404Z,11.90
2019-05-21T05:45:51.178Z,11.90
2019-05-21T05:48:22.643Z,11.90
2019-05-21T05:51:00.860Z,11.90
2019-05-21T05:53:33.871Z,11.90
2019-05-21T05:56:03.980Z,12.00
2019-05-21T05:58:53.501Z,12.00
2019-05-21T06:01:22.669Z,12.00
2019-05-21T06:03:51.907Z,12.00
2019-05-21T06:06:21.052Z,12.00
2019-05-21T06:08:54.987Z,11.90
2019-05-21T06:11:46.582Z,11.90
2019-05-21T06:14:17.538Z,11.90
2019-05-21T06:17:05.658Z,11.90
2019-05-21T06:19:34.404Z,11.90
2019-05-21T06:22:02.830Z,11.90
2019-05-21T06:24:52.758Z,11.90
2019-05-21T06:27:21.680Z,11.80
2019-05-21T06:29:55.108Z,11.90
2019-05-21T06:32:28.779Z,11.80
2019-05-21T06:34:57.277Z,11.90
2019-05-21T06:37:29.116Z,11.90
2019-05-21T06:39:57.554Z,12.00
2019-05-21T06:42:26.004Z,12.00
2019-05-21T06:45:14.663Z,12.00
2019-05-21T06:47:43.400Z,12.10
2019-05-21T06:50:12.953Z,12.10
2019-05-21T06:52:46.843Z,12.20
2019-05-21T06:55:18.217Z,12.20
2019-05-21T06:58:08.442Z,12.20
2019-05-21T07:00:36.879Z,12.20
2019-05-21T07:03:05.383Z,12.30
2019-05-21T07:05:33.847Z,12.30
2019-05-21T07:08:02.269Z,12.30
2019-05-21T07:10:30.792Z,12.30
2019-05-21T07:12:59.259Z,12.20
2019-05-21T07:15:28.799Z,12.20
2019-05-21T07:17:57.365Z,12.20
2019-05-21T07:20:26.431Z,12.20
2019-05-21T07:22:55.465Z,12.20
2019-05-21T07:25:25.261Z,12.30
2019-05-21T07:27:55.094Z,12.30
2019-05-21T07:30:25.045Z,12.30
2019-05-21T07:32:54.865Z,12.30
2019-05-21T07:35:24.483Z,12.20
2019-05-21T07:37:53.697Z,12.20
2019-05-21T07:40:24.596Z,12.20
2019-05-21T07:42:54.166Z,12.20
2019-05-21T07:45:24.153Z,12.20
2019-05-21T07:47:54.001Z,12.30
2019-05-21T07:50:26.180Z,12.30
2019-05-21T07:52:55.374Z,12.20
2019-05-21T07:55:25.371Z,12.20
2019-05-21T07:57:55.679Z,12.20
2019-05-21T08:00:26.000Z,12.20
2019-05-21T08:02:55.168Z,12.20
2019-05-21T08:05:24.054Z,12.20
2019-05-21T08:07:55.024Z,12.30
2019-05-21T08:10:23.976Z,12.20
2019-05-21T08:12:53.139Z,12.20
2019-05-21T08:15:24.142Z,12.20
2019-05-21T08:17:54.918Z,12.20
2019-05-21T08:20:25.251Z,12.20
2019-05-21T08:22:54.428Z,12.10
2019-05-21T08:25:23.079Z,12.10
2019-05-21T08:27:52.629Z,12.10
2019-05-21T08:30:22.563Z,12.10
2019-05-21T08:32:52.380Z,12.10
2019-05-21T08:35:22.102Z,12.00
2019-05-21T08:37:52.464Z,12.00
2019-05-21T08:40:25.175Z,11.90
2019-05-21T08:42:54.515Z,11.90
2019-05-21T08:45:23.655Z,12.00
2019-05-21T08:47:55.740Z,12.00
2019-05-21T08:50:26.462Z,12.00
2019-05-21T08:53:03.023Z,11.90
2019-05-21T08:55:31.687Z,12.00
2019-05-21T08:58:06.885Z,11.90
2019-05-21T09:00:31.012Z,11.90
2019-05-21T09:02:59.608Z,11.90
2019-05-21T09:05:28.209Z,11.90
2019-05-21T09:07:57.086Z,12.00
2019-05-21T09:10:27.193Z,11.90
2019-05-21T09:12:56.194Z,12.00
2019-05-21T09:15:25.472Z,12.00
2019-05-21T09:17:54.912Z,12.00
2019-05-21T09:20:24.292Z,12.00
2019-05-21T09:22:54.262Z,12.10
2019-05-21T09:25:24.775Z,12.10
2019-05-21T09:27:55.799Z,12.20
2019-05-21T09:30:24.796Z,12.10
2019-05-21T09:32:55.684Z,12.10
2019-05-21T09:35:25.375Z,12.20
2019-05-21T09:37:54.327Z,12.20
2019-05-21T09:40:24.724Z,12.30
2019-05-21T09:42:54.753Z,12.20
2019-05-21T09:45:24.076Z,12.20
2019-05-21T09:47:53.916Z,12.10
2019-05-21T09:50:23.998Z,12.20
2019-05-21T09:52:54.124Z,12.20
2019-05-21T09:55:24.451Z,12.20
2019-05-21T09:58:14.128Z,12.10
2019-05-21T10:00:51.218Z,12.00
2019-05-21T10:03:25.740Z,11.90
2019-05-21T10:06:18.717Z,11.90
2019-05-21T10:08:49.446Z,11.90
2019-05-21T10:11:22.196Z,11.90
2019-05-21T10:13:54.546Z,11.90
2019-05-21T10:16:42.381Z,11.80
2019-05-21T10:22:04.411Z,11.90
2019-05-21T10:24:33.100Z,11.90
2019-05-21T10:27:03.540Z,11.90
2019-05-21T10:29:31.724Z,12.00
2019-05-21T10:32:02.836Z,12.00
2019-05-21T10:34:31.281Z,12.10
2019-05-21T10:36:59.798Z,12.10
2019-05-21T10:39:47.930Z,12.10
2019-05-21T10:42:22.388Z,12.10
2019-05-21T10:44:53.089Z,12.10
2019-05-21T10:47:22.638Z,12.10
2019-05-21T10:49:52.025Z,12.10
2019-05-21T10:52:23.693Z,12.20
2019-05-21T10:54:54.534Z,12.20
2019-05-21T10:57:23.371Z,12.30
2019-05-21T10:59:53.663Z,12.30
2019-05-21T11:02:26.584Z,12.30
2019-05-21T11:08:23.412Z,12.40
2019-05-21T11:10:43.032Z,12.40
2019-05-21T11:13:12.275Z,12.50
2019-05-21T11:15:42.070Z,12.50
2019-05-21T11:18:31.687Z,12.50
2019-05-21T11:21:00.505Z,12.50
2019-05-21T11:23:30.886Z,12.50
2019-05-21T11:25:59.322Z,12.40
2019-05-21T11:28:28.000Z,12.40
2019-05-21T11:30:56.593Z,12.40
2019-05-21T11:33:25.858Z,12.40
2019-05-21T11:35:54.794Z,12.50
2019-05-21T11:38:39.073Z,12.50
2019-05-21T11:40:56.070Z,12.50
2019-05-21T11:43:25.465Z,12.50
2019-05-21T11:45:54.273Z,12.50
2019-05-21T11:48:23.662Z,12.50
2019-05-21T11:50:55.333Z,12.60
2019-05-21T11:53:24.927Z,12.70
2019-05-21T11:55:53.923Z,12.60
2019-05-21T11:58:24.359Z,12.70
2019-05-21T12:00:53.886Z,12.80
2019-05-21T12:03:41.798Z,12.90
2019-05-21T12:06:21.033Z,12.90
2019-05-21T12:09:08.939Z,13.00
2019-05-21T12:11:38.009Z,13.00
2019-05-21T12:14:06.790Z,13.10
2019-05-21T12:16:56.260Z,13.20
2019-05-21T12:19:24.814Z,13.20
2019-05-21T12:21:54.349Z,13.20
2019-05-21T12:24:27.579Z,13.30
2019-05-21T12:26:56.136Z,13.30
2019-05-21T12:29:25.710Z,13.20
2019-05-21T12:31:54.702Z,13.20
2019-05-21T12:34:24.037Z,13.30
2019-05-21T12:36:53.215Z,13.30
2019-05-21T12:39:23.556Z,13.30
2019-05-21T12:41:53.449Z,13.30
2019-05-21T12:44:24.675Z,13.30
2019-05-21T12:46:54.065Z,13.20
2019-05-21T12:49:24.017Z,13.10
2019-05-21T12:51:53.391Z,13.20
2019-05-21T12:54:23.740Z,13.10
2019-05-21T12:56:53.156Z,13.10
2019-05-21T12:59:22.860Z,13.10
2019-05-21T13:01:52.192Z,13.10
2019-05-21T13:04:22.297Z,13.10
2019-05-21T13:06:52.110Z,12.90
2019-05-21T13:09:32.485Z,13.00
2019-05-21T13:14:52.286Z,13.00
2019-05-21T13:17:23.279Z,13.00
2019-05-21T13:19:53.258Z,12.90
2019-05-21T13:22:23.541Z,12.90
2019-05-21T13:24:52.608Z,12.90
2019-05-21T13:27:22.114Z,12.90
2019-05-21T13:29:51.740Z,12.90
2019-05-21T13:32:43.799Z,12.90
2019-05-21T13:35:11.735Z,12.80
2019-05-21T13:37:59.528Z,12.80
2019-05-21T13:40:28.109Z,12.80
2019-05-21T13:42:56.558Z,12.70
2019-05-21T13:45:25.063Z,12.70
2019-05-21T13:47:53.705Z,12.70
2019-05-21T13:50:22.212Z,12.80
2019-05-21T13:53:12.032Z,12.80
2019-05-21T13:55:42.009Z,12.80
2019-05-21T13:58:11.170Z,12.70
2019-05-21T14:00:44.547Z,12.70
2019-05-21T14:03:13.467Z,12.70
2019-05-21T14:06:01.321Z,12.70
2019-05-21T14:08:29.834Z,12.70
2019-05-21T14:10:58.320Z,12.70
2019-05-21T14:13:26.871Z,12.70
2019-05-21T14:15:55.537Z,12.80
2019-05-21T14:18:25.175Z,12.80
2019-05-21T14:20:54.559Z,12.70
2019-05-21T14:23:24.492Z,12.80
2019-05-21T14:25:54.015Z,12.80
2019-05-21T14:28:22.842Z,12.90
2019-05-21T14:30:51.911Z,12.90
2019-05-21T14:33:41.864Z,13.00
2019-05-21T14:36:11.204Z,13.10
2019-05-21T14:38:40.277Z,13.00
2019-05-21T14:41:28.077Z,13.00
2019-05-21T14:43:56.579Z,12.90
2019-05-21T14:46:25.540Z,13.00
2019-05-21T14:49:16.143Z,13.00
2019-05-21T14:51:46.424Z,13.00
2019-05-21T14:54:26.176Z,13.00
2019-05-21T14:56:48.198Z,12.90
2019-05-21T14:59:37.712Z,12.90
2019-05-21T15:02:06.157Z,13.00
2019-05-21T15:04:41.186Z,12.90
2019-05-21T15:07:19.106Z,12.90
2019-05-21T15:09:53.604Z,12.90
2019-05-21T15:12:22.896Z,12.90
2019-05-21T15:14:52.809Z,12.90
2019-05-21T15:17:23.625Z,12.90
2019-05-21T15:19:56.637Z,12.90
2019-05-21T15:22:25.336Z,12.90
2019-05-21T15:24:54.450Z,12.90
2019-05-21T15:27:23.889Z,12.90
2019-05-21T15:30:11.884Z,12.90
2019-05-21T15:32:41.717Z,12.90
2019-05-21T15:35:12.155Z,13.00
2019-05-21T15:37:45.000Z,13.00
2019-05-21T15:40:12.828Z,13.00
2019-05-21T15:43:00.760Z,13.00
2019-05-21T15:45:29.275Z,13.00
2019-05-21T15:47:57.775Z,13.10
2019-05-21T15:50:27.590Z,13.00
2019-05-21T15:52:56.143Z,13.00
2019-05-21T15:55:26.690Z,12.90
2019-05-21T15:57:55.384Z,13.00
2019-05-21T16:00:27.078Z,13.00
2019-05-21T16:02:56.352Z,13.00
2019-05-21T16:05:25.267Z,12.90
2019-05-21T16:10:47.007Z,12.90
2019-05-21T16:13:20.472Z,12.80
2019-05-21T16:15:52.379Z,12.80
2019-05-21T16:18:27.248Z,12.80
2019-05-21T16:20:55.991Z,12.80
2019-05-21T16:23:25.008Z,12.80
2019-05-21T16:25:54.005Z,12.80
2019-05-21T16:28:23.148Z,12.80
2019-05-21T16:30:53.882Z,12.80
2019-05-21T16:33:23.723Z,12.80
2019-05-21T16:35:52.554Z,12.80
2019-05-21T16:38:25.327Z,12.80
2019-05-21T16:40:54.483Z,12.80
2019-05-21T16:43:23.463Z,12.80
2019-05-21T16:45:55.370Z,12.80
2019-05-21T16:48:24.499Z,12.80
2019-05-21T16:50:55.582Z,12.80
2019-05-21T16:53:24.589Z,12.80
2019-05-21T16:55:53.556Z,12.80
2019-05-21T16:58:23.359Z,12.80
2019-05-21T17:04:00.165Z,12.90
2019-05-21T17:06:28.155Z,12.90
2019-05-21T17:08:56.829Z,12.90
2019-05-21T17:11:25.394Z,12.80
2019-05-21T17:13:54.186Z,12.80
2019-05-21T17:16:24.255Z,12.90
2019-05-21T17:18:53.701Z,12.90
2019-05-21T17:21:22.941Z,12.90
2019-05-21T17:23:52.840Z,12.90
2019-05-21T17:26:22.775Z,12.80
2019-05-21T17:28:51.782Z,12.80
2019-05-21T17:31:21.145Z,12.80
2019-05-21T17:33:51.023Z,12.90
2019-05-21T17:36:22.725Z,12.80
2019-05-21T17:38:51.457Z,12.90
2019-05-21T17:41:21.056Z,12.80
2019-05-21T17:43:54.311Z,12.80
2019-05-21T17:46:23.444Z,12.80
2019-05-21T17:48:52.883Z,12.80
2019-05-21T17:51:27.357Z,12.80
2019-05-21T17:53:57.864Z,12.80
2019-05-21T17:56:29.120Z,12.80
2019-05-21T17:58:57.779Z,12.80
2019-05-21T18:01:26.372Z,12.80
2019-05-21T18:03:57.727Z,12.80
2019-05-21T18:06:26.682Z,12.80
2019-05-21T18:09:04.178Z,12.80
2019-05-21T18:11:31.938Z,12.80
2019-05-21T18:14:00.403Z,12.80
2019-05-21T18:16:29.196Z,12.70
2019-05-21T18:18:58.162Z,12.70
2019-05-21T18:21:48.154Z,12.70
2019-05-21T18:24:21.887Z,12.70
2019-05-21T18:26:59.103Z,12.60
2019-05-21T18:29:27.289Z,12.60
2019-05-21T18:32:01.709Z,12.60
2019-05-21T18:34:32.333Z,12.50
2019-05-21T18:37:01.913Z,12.50
2019-05-21T18:39:31.008Z,12.50
2019-05-21T18:42:00.835Z,12.50
2019-05-21T18:44:29.956Z,12.50
2019-05-21T18:46:58.380Z,12.40
2019-05-21T18:49:27.784Z,12.40
2019-05-21T18:51:57.115Z,12.40
2019-05-21T18:54:27.391Z,12.30
2019-05-21T18:59:52.926Z,12.30
2019-05-21T19:02:28.355Z,12.30
2019-05-21T19:04:58.145Z,12.20
2019-05-21T19:07:27.190Z,12.20
2019-05-21T19:12:52.590Z,12.10
2019-05-21T19:15:23.515Z,12.10
2019-05-21T19:17:54.616Z,12.10
2019-05-21T19:20:23.856Z,12.10
2019-05-21T19:22:54.592Z,12.00
2019-05-21T19:25:23.880Z,12.00
2019-05-21T19:27:53.648Z,12.00
2019-05-21T19:30:23.636Z,12.00
2019-05-21T19:32:53.404Z,12.00
2019-05-21T19:35:23.628Z,12.00
2019-05-21T19:37:57.505Z,11.90
2019-05-21T19:40:48.932Z,11.90
2019-05-21T19:43:19.442Z,11.90
2019-05-21T19:45:51.001Z,11.90
2019-05-21T19:48:21.846Z,11.90
2019-05-21T19:50:50.936Z,11.90
2019-05-21T19:53:19.794Z,11.90
2019-05-21T19:56:07.897Z,11.90
2019-05-21T19:58:36.423Z,11.90
2019-05-21T20:01:06.202Z,11.80
2019-05-21T20:03:34.717Z,11.70
2019-05-21T20:06:03.302Z,11.70
2019-05-21T20:08:32.021Z,11.70
2019-05-21T20:11:00.585Z,11.60
2019-05-21T20:13:32.747Z,11.60
2019-05-21T20:16:01.219Z,11.60
2019-05-21T20:18:29.717Z,11.50
2019-05-21T20:20:59.776Z,11.50
2019-05-21T20:23:28.576Z,11.50
2019-05-21T20:26:00.659Z,11.50
2019-05-21T20:28:30.705Z,11.40
2019-05-21T20:30:59.588Z,11.40
2019-05-21T20:33:28.176Z,11.40
2019-05-21T20:35:57.713Z,11.40
2019-05-21T20:38:28.328Z,11.40
2019-05-21T20:41:17.714Z,11.40
2019-05-21T20:43:58.155Z,11.30
2019-05-21T20:46:17.443Z,11.30
2019-05-21T20:48:48.222Z,11.40
2019-05-21T20:51:25.094Z,11.40
2019-05-21T20:53:53.777Z,11.30
2019-05-21T20:56:22.410Z,11.30
2019-05-21T20:58:51.686Z,11.30
2019-05-21T21:01:20.483Z,11.40
2019-05-21T21:04:10.059Z,11.40
2019-05-21T21:06:42.943Z,11.30
2019-05-21T21:09:16.451Z,11.30
2019-05-21T21:11:48.638Z,11.30
2019-05-21T21:14:24.148Z,11.30
2019-05-21T21:16:53.199Z,11.30
2019-05-21T21:19:23.539Z,11.30
2019-05-21T21:21:54.402Z,11.30
2019-05-21T21:24:23.733Z,11.30
2019-05-21T21:27:04.722Z,11.30
2019-05-21T21:29:34.790Z,11.30
2019-05-21T21:32:03.249Z,11.30
2019-05-21T21:34:31.879Z,11.30
2019-05-21T21:37:01.921Z,11.30
2019-05-21T21:39:30.576Z,11.30
2019-05-21T21:42:01.192Z,11.30
2019-05-21T21:44:34.120Z,11.30
2019-05-21T21:47:01.218Z,11.30
2019-05-21T21:49:32.650Z,11.30
2019-05-21T21:52:01.278Z,11.20
2019-05-21T21:54:31.162Z,11.20
2019-05-21T21:57:26.704Z,11.10
2019-05-21T21:59:56.696Z,11.10
2019-05-21T22:02:49.190Z,11.00
2019-05-21T22:05:20.737Z,11.00
2019-05-21T22:07:52.824Z,10.90
2019-05-21T22:10:22.647Z,10.90
2019-05-21T22:12:51.998Z,10.90
2019-05-21T22:15:21.514Z,10.90
2019-05-21T22:17:56.414Z,10.80
2019-05-21T22:20:27.823Z,10.80
2019-05-21T22:22:57.450Z,10.80
2019-05-21T22:25:28.533Z,10.80
2019-05-21T22:27:57.647Z,10.80
2019-05-21T22:30:49.609Z,10.80
2019-05-21T22:33:30.053Z,10.80
2019-05-21T22:35:58.570Z,10.80
2019-05-21T22:38:32.343Z,10.80
2019-05-21T22:41:00.258Z,10.80
2019-05-21T22:43:30.416Z,10.80
2019-05-21T22:46:00.404Z,10.80
2019-05-21T22:48:29.268Z,10.80
2019-05-21T22:50:58.631Z,10.80
2019-05-21T22:53:29.401Z,10.80
2019-05-21T22:55:59.731Z,10.80
2019-05-21T22:58:29.659Z,10.70
2019-05-21T23:01:00.263Z,10.70
2019-05-21T23:03:28.855Z,10.70
2019-05-21T23:05:59.829Z,10.70
2019-05-21T23:08:29.974Z,10.70
2019-05-21T23:10:59.111Z,10.60
2019-05-21T23:13:31.057Z,10.50
2019-05-21T23:15:59.755Z,10.50
2019-05-21T23:18:29.193Z,10.50
2019-05-21T23:21:19.386Z,10.50
2019-05-21T23:26:34.840Z,10.40
2019-05-21T23:29:03.985Z,10.40
2019-05-21T23:31:32.515Z,10.40
2019-05-21T23:34:23.145Z,10.30
2019-05-21T23:36:53.035Z,10.30
2019-05-21T23:39:24.010Z,10.30
2019-05-21T23:41:53.261Z,10.20
2019-05-21T23:44:23.735Z,10.20
2019-05-21T23:46:53.198Z,10.10
2019-05-21T23:49:22.228Z,10.10
2019-05-21T23:51:53.110Z,10.10
2019-05-21T23:54:22.482Z,10.00
2019-05-21T23:57:13.139Z,10.00
2019-05-21T23:59:42.243Z,10.00
